Time;durP1;ratioP1;P1;durP2;ratioP2;P2;SDS_P1;SDS_P2;PMS_P1;PMS_P2;Temp;Humidity;BMP_temperature;BMP_pressure;BME280_temperature;BME280_humidity;BME280_pressure;Samples;Min_cycle;Max_cycle;Signal;HPM_P1;HPM_P2
2023/04/02 00:02:19;;;;;;;;;;;;;;;6.83;97.4834;101452;;;;-74
2023/04/02 00:07:20;;;;;;;;;;;;;;;6.79;97.35254;101457.7;;;;-74
2023/04/02 00:12:19;;;;;;;;;;;;;;;6.78;97.42676;101461.3;;;;-74
2023/04/02 00:17:08;;;;;;;;;;;;;;;6.75;97.4082;101474.1;;;;-74
2023/04/02 00:19:59;;;;;;;8.6;3.7;;;;;;;;;;;;;-76
2023/04/02 00:22:10;;;;;;;;;;;;;;;6.73;97.25977;101485.4;;;;-74
2023/04/02 00:27:10;;;;;;;;;;;;;;;6.71;97.23633;101490;;;;-74
2023/04/02 00:32:08;;;;;;;;;;;;;;;6.69;97.16699;101496;;;;-75
2023/04/02 00:37:08;;;;;;;;;;;;;;;6.65;97.17871;101506.3;;;;-76
2023/04/02 00:42:09;;;;;;;;;;;;;;;6.64;96.92773;101513.3;;;;-75
2023/04/02 00:47:14;;;;;;;;;;;;;;;6.59;96.75195;101523.1;;;;-75
2023/04/02 00:50:00;;;;;;;8.7;3.8;;;;;;;;;;;;;-75
2023/04/02 00:52:12;;;;;;;;;;;;;;;6.58;96.8457;101529.1;;;;-75
2023/04/02 00:57:16;;;;;;;;;;;;;;;6.57;96.89844;101539.7;;;;-75
2023/04/02 01:02:21;;;;;;;;;;;;;;;6.54;96.98145;101543.7;;;;-74
2023/04/02 01:07:11;;;;;;;;;;;;;;;6.52;96.81152;101550.4;;;;-73
2023/04/02 01:12:23;;;;;;;;;;;;;;;6.47;96.88867;101552.3;;;;-74
2023/04/02 01:17:14;;;;;;;;;;;;;;;6.45;96.51172;101562;;;;-75
2023/04/02 01:20:12;;;;;;;7.7;3.6;;;;;;;;;;;;;-74
2023/04/02 01:22:10;;;;;;;;;;;;;;;6.4;96.5459;101564.4;;;;-75
2023/04/02 01:27:09;;;;;;;;;;;;;;;6.4;96.48047;101571;;;;-74
2023/04/02 01:32:12;;;;;;;;;;;;;;;6.37;96.28906;101577.5;;;;-75
2023/04/02 01:37:24;;;;;;;;;;;;;;;6.35;96.34766;101591.6;;;;-75
2023/04/02 01:42:13;;;;;;;;;;;;;;;6.32;96.26563;101604.4;;;;-75
2023/04/02 01:47:15;;;;;;;;;;;;;;;6.32;96.29883;101606.2;;;;-73
2023/04/02 01:50:01;;;;;;;7.9;3.5;;;;;;;;;;;;;-74
2023/04/02 01:52:11;;;;;;;;;;;;;;;6.28;96.24707;101620.1;;;;-74
2023/04/02 01:57:10;;;;;;;;;;;;;;;6.27;96.14453;101621.1;;;;-75
2023/04/02 02:02:09;;;;;;;;;;;;;;;6.25;96.20605;101635.8;;;;-74
2023/04/02 02:07:09;;;;;;;;;;;;;;;6.2;96.07617;101642;;;;-76
2023/04/02 02:12:08;;;;;;;;;;;;;;;6.17;96.05859;101657.3;;;;-74
2023/04/02 02:17:12;;;;;;;;;;;;;;;6.13;96.11426;101658;;;;-74
2023/04/02 02:20:01;;;;;;;5.2;2.7;;;;;;;;;;;;;-76
2023/04/02 02:22:12;;;;;;;;;;;;;;;6.11;95.90137;101664.4;;;;-74
2023/04/02 02:27:24;;;;;;;;;;;;;;;6.08;95.92773;101678.5;;;;-75
2023/04/02 02:32:10;;;;;;;;;;;;;;;6.07;95.99316;101691.2;;;;-74
2023/04/02 02:37:12;;;;;;;;;;;;;;;6.07;95.80762;101699.5;;;;-74
2023/04/02 02:42:11;;;;;;;;;;;;;;;5.99;95.7334;101715.3;;;;-74
2023/04/02 02:47:12;;;;;;;;;;;;;;;5.98;95.69922;101719.4;;;;-75
2023/04/02 02:50:02;;;;;;;5.4;2.5;;;;;;;;;;;;;-74
2023/04/02 02:52:16;;;;;;;;;;;;;;;5.98;95.69922;101724.7;;;;-74
2023/04/02 02:57:10;;;;;;;;;;;;;;;5.93;95.54688;101738.5;;;;-74
2023/04/02 03:02:10;;;;;;;;;;;;;;;5.82;95.43555;101746.3;;;;-74
2023/04/02 03:07:10;;;;;;;;;;;;;;;5.84;95.54004;101758;;;;-74
2023/04/02 03:12:12;;;;;;;;;;;;;;;5.77;95.41504;101764.7;;;;-74
2023/04/02 03:17:13;;;;;;;;;;;;;;;5.76;95.5;101774;;;;-74
2023/04/02 03:20:10;;;;;;;6.1;2.9;;;;;;;;;;;;;-74
2023/04/02 03:22:11;;;;;;;;;;;;;;;5.78;95.31934;101791.4;;;;-74
2023/04/02 03:27:14;;;;;;;;;;;;;;;5.77;95.27344;101798.2;;;;-74
2023/04/02 03:32:11;;;;;;;;;;;;;;;5.74;95.23242;101811.7;;;;-74
2023/04/02 03:37:13;;;;;;;;;;;;;;;5.65;95.02734;101819.9;;;;-73
2023/04/02 03:42:12;;;;;;;;;;;;;;;5.63;95.07617;101834;;;;-73
2023/04/02 03:47:14;;;;;;;;;;;;;;;5.59;94.85059;101840.3;;;;-75
2023/04/02 03:50:04;;;;;;;5.6;2.9;;;;;;;;;;;;;-74
2023/04/02 03:52:13;;;;;;;;;;;;;;;5.57;94.94629;101854.4;;;;-74
2023/04/02 03:57:09;;;;;;;;;;;;;;;5.52;94.80371;101868.1;;;;-74
2023/04/02 04:02:14;;;;;;;;;;;;;;;5.44;94.77734;101883.7;;;;-75
2023/04/02 04:07:14;;;;;;;;;;;;;;;5.42;94.5752;101886.5;;;;-75
2023/04/02 04:12:11;;;;;;;;;;;;;;;5.42;94.53125;101895.7;;;;-75
2023/04/02 04:17:23;;;;;;;;;;;;;;;5.4;94.52734;101908.3;;;;-75
2023/04/02 04:20:07;;;;;;;6.5;2.9;;;;;;;;;;;;;-74
2023/04/02 04:22:29;;;;;;;;;;;;;;;5.33;94.41406;101921;;;;-74
2023/04/02 04:27:15;;;;;;;;;;;;;;;5.33;94.57715;101934.9;;;;-74
2023/04/02 04:32:19;;;;;;;;;;;;;;;5.25;94.23438;101941.1;;;;-75
2023/04/02 04:37:10;;;;;;;;;;;;;;;5.17;93.95605;101962.2;;;;-74
2023/04/02 04:42:10;;;;;;;;;;;;;;;5.15;94.16699;101966.8;;;;-73
2023/04/02 04:47:21;;;;;;;;;;;;;;;5.11;93.76758;101975.1;;;;-74
2023/04/02 04:50:03;;;;;;;6.6;2.6;;;;;;;;;;;;;-74
2023/04/02 04:52:12;;;;;;;;;;;;;;;5.05;93.79785;101993;;;;-74
2023/04/02 04:57:09;;;;;;;;;;;;;;;5.03;93.81543;102003.4;;;;-75
2023/04/02 05:02:14;;;;;;;;;;;;;;;4.95;93.45117;102018.2;;;;-74
2023/04/02 05:07:11;;;;;;;;;;;;;;;4.93;93.37109;102026.6;;;;-74
2023/04/02 05:12:10;;;;;;;;;;;;;;;4.88;93.42285;102042.1;;;;-75
2023/04/02 05:17:10;;;;;;;;;;;;;;;4.81;93.25684;102043.7;;;;-74
2023/04/02 05:20:15;;;;;;;4.2;1.9;;;;;;;;;;;;;-75
2023/04/02 05:22:17;;;;;;;;;;;;;;;4.75;92.91895;102055.5;;;;-75
2023/04/02 05:27:12;;;;;;;;;;;;;;;4.69;92.91602;102069;;;;-74
2023/04/02 05:32:11;;;;;;;;;;;;;;;4.7;92.72168;102072.7;;;;-75
2023/04/02 05:37:08;;;;;;;;;;;;;;;4.66;92.5166;102084.2;;;;-74
2023/04/02 05:42:09;;;;;;;;;;;;;;;4.65;92.40625;102087.4;;;;-75
2023/04/02 05:47:11;;;;;;;;;;;;;;;4.58;92.1748;102096.1;;;;-75
2023/04/02 05:50:12;;;;;;;4.2;1.8;;;;;;;;;;;;;-75
2023/04/02 05:52:11;;;;;;;;;;;;;;;4.57;92.11719;102112.9;;;;-74
2023/04/02 05:57:12;;;;;;;;;;;;;;;4.56;92.08203;102134.7;;;;-75
2023/04/02 06:02:11;;;;;;;;;;;;;;;4.52;91.7832;102143.2;;;;-74
2023/04/02 06:07:11;;;;;;;;;;;;;;;4.51;91.61621;102156.1;;;;-75
2023/04/02 06:12:15;;;;;;;;;;;;;;;4.49;91.67871;102163.3;;;;-74
2023/04/02 06:17:08;;;;;;;;;;;;;;;4.49;91.8291;102178.4;;;;-74
2023/04/02 06:20:03;;;;;;;3.6;1.3;;;;;;;;;;;;;-74
2023/04/02 06:22:19;;;;;;;;;;;;;;;4.49;91.43848;102187.8;;;;-74
2023/04/02 06:27:09;;;;;;;;;;;;;;;4.49;91.43652;102197.2;;;;-74
2023/04/02 06:32:10;;;;;;;;;;;;;;;4.5;91.2334;102201.7;;;;-75
2023/04/02 06:37:18;;;;;;;;;;;;;;;4.54;91.06934;102213.1;;;;-74
2023/04/02 06:42:12;;;;;;;;;;;;;;;4.58;91.29395;102233.8;;;;-75
2023/04/02 06:47:13;;;;;;;;;;;;;;;4.58;90.9248;102246.1;;;;-75
2023/04/02 06:50:06;;;;;;;2.4;1.2;;;;;;;;;;;;;-74
2023/04/02 06:52:14;;;;;;;;;;;;;;;4.6;90.81934;102250;;;;-74
2023/04/02 06:57:09;;;;;;;;;;;;;;;4.63;90.46582;102259.9;;;;-75
2023/04/02 07:02:17;;;;;;;;;;;;;;;4.6;90.41699;102265.3;;;;-73
2023/04/02 07:07:08;;;;;;;;;;;;;;;4.59;89.70801;102278.4;;;;-74
2023/04/02 07:12:13;;;;;;;;;;;;;;;4.57;89.97461;102290;;;;-75
2023/04/02 07:17:08;;;;;;;;;;;;;;;4.64;89.50195;102298;;;;-73
2023/04/02 07:20:02;;;;;;;3.5;1;;;;;;;;;;;;;-73
2023/04/02 07:22:08;;;;;;;;;;;;;;;4.74;89.41211;102309.5;;;;-75
2023/04/02 07:27:08;;;;;;;;;;;;;;;4.82;89.0166;102310.2;;;;-74
2023/04/02 07:32:08;;;;;;;;;;;;;;;4.95;89.50977;102329.5;;;;-75
2023/04/02 07:37:09;;;;;;;;;;;;;;;5.02;88.83789;102344.2;;;;-76
2023/04/02 07:42:08;;;;;;;;;;;;;;;5.05;88.73438;102353.7;;;;-75
2023/04/02 07:47:09;;;;;;;;;;;;;;;5.11;88.58398;102370.5;;;;-73
2023/04/02 07:50:02;;;;;;;3.7;1.2;;;;;;;;;;;;;-73
2023/04/02 07:52:13;;;;;;;;;;;;;;;5.19;88.31543;102366.8;;;;-74
2023/04/02 07:57:11;;;;;;;;;;;;;;;5.44;89.8418;102372.2;;;;-74
2023/04/02 08:02:09;;;;;;;;;;;;;;;5.9;86.67188;102378.5;;;;-74
2023/04/02 08:07:08;;;;;;;;;;;;;;;6.33;85.73047;102372.8;;;;-73
2023/04/02 08:12:12;;;;;;;;;;;;;;;6.36;85.69043;102390.1;;;;-74
2023/04/02 08:17:08;;;;;;;;;;;;;;;6.72;84.59082;102392.4;;;;-75
2023/04/02 08:20:05;;;;;;;4.5;1.3;;;;;;;;;;;;;-73
2023/04/02 08:22:08;;;;;;;;;;;;;;;7.08;84.54004;102398.7;;;;-74
2023/04/02 08:27:08;;;;;;;;;;;;;;;7.65;82.85254;102415;;;;-74
2023/04/02 08:32:10;;;;;;;;;;;;;;;8.08;81.05176;102417.3;;;;-74
2023/04/02 08:37:08;;;;;;;;;;;;;;;8.24;79.51953;102421.6;;;;-74
2023/04/02 08:42:10;;;;;;;;;;;;;;;8.16;80.58496;102420.9;;;;-74
2023/04/02 08:47:09;;;;;;;;;;;;;;;8.41;80.4209;102430;;;;-74
2023/04/02 08:50:05;;;;;;;4.7;1.2;;;;;;;;;;;;;-74
2023/04/02 08:52:08;;;;;;;;;;;;;;;8.85;79.99512;102433.7;;;;-73
2023/04/02 08:57:10;;;;;;;;;;;;;;;9.48;78.60938;102442.6;;;;-74
2023/04/02 09:02:22;;;;;;;;;;;;;;;9.7;78.25098;102447.7;;;;-73
2023/04/02 09:07:08;;;;;;;;;;;;;;;9.98;76.32129;102461.6;;;;-74
2023/04/02 09:12:14;;;;;;;;;;;;;;;10.06;77.8623;102481;;;;-74
2023/04/02 09:17:12;;;;;;;;;;;;;;;10.15;76.39551;102480.9;;;;-74
2023/04/02 09:20:11;;;;;;;2.8;1;;;;;;;;;;;;;-74
2023/04/02 09:22:11;;;;;;;;;;;;;;;10.3;77.375;102484.5;;;;-75
2023/04/02 09:27:19;;;;;;;;;;;;;;;10.67;76.49805;102499.5;;;;-75
2023/04/02 09:32:12;;;;;;;;;;;;;;;11.01;75.69141;102494.4;;;;-74
2023/04/02 09:37:16;;;;;;;;;;;;;;;11.28;75.58301;102493.8;;;;-75
2023/04/02 09:42:22;;;;;;;;;;;;;;;11.56;75.93164;102509.2;;;;-75
2023/04/02 09:47:09;;;;;;;;;;;;;;;11.92;73.92578;102515.2;;;;-73
2023/04/02 09:50:14;;;;;;;3.4;1;;;;;;;;;;;;;-74
2023/04/02 09:52:19;;;;;;;;;;;;;;;11.89;73.2002;102528.3;;;;-74
2023/04/02 09:57:08;;;;;;;;;;;;;;;12.06;71.88086;102531.7;;;;-77
2023/04/02 10:02:22;;;;;;;;;;;;;;;12.2;71.47949;102531.7;;;;-73
2023/04/02 10:07:09;;;;;;;;;;;;;;;12.34;71.05664;102532.2;;;;-72
2023/04/02 10:12:09;;;;;;;;;;;;;;;12.52;70.07129;102547.3;;;;-73
2023/04/02 10:17:10;;;;;;;;;;;;;;;12.72;70.94141;102549.2;;;;-73
2023/04/02 10:20:10;;;;;;;2.9;1;;;;;;;;;;;;;-74
2023/04/02 10:22:13;;;;;;;;;;;;;;;12.92;72.82324;102552.2;;;;-73
2023/04/02 10:27:16;;;;;;;;;;;;;;;13.23;67.64746;102551;;;;-72
2023/04/02 10:32:10;;;;;;;;;;;;;;;13.33;67.58594;102557.6;;;;-75
2023/04/02 10:37:12;;;;;;;;;;;;;;;13.38;68.16309;102564.8;;;;-73
2023/04/02 10:42:14;;;;;;;;;;;;;;;13.27;72.72656;102577.1;;;;-72
2023/04/02 10:47:12;;;;;;;;;;;;;;;13.33;73.7168;102583.4;;;;-74
2023/04/02 10:50:14;;;;;;;4.7;1.1;;;;;;;;;;;;;-73
2023/04/02 10:52:12;;;;;;;;;;;;;;;13.55;74.24512;102585.1;;;;-72
2023/04/02 10:57:10;;;;;;;;;;;;;;;13.8;70.29688;102584.2;;;;-73
2023/04/02 11:02:17;;;;;;;;;;;;;;;13.93;74.94629;102585.4;;;;-74
2023/04/02 11:07:10;;;;;;;;;;;;;;;13.91;73.3457;102587.8;;;;-73
2023/04/02 11:12:10;;;;;;;;;;;;;;;14.1;74.11328;102600.2;;;;-74
2023/04/02 11:17:08;;;;;;;;;;;;;;;14.3;77.90332;102597.2;;;;-73
2023/04/02 11:20:20;;;;;;;4.4;1.1;;;;;;;;;;;;;-73
2023/04/02 11:22:17;;;;;;;;;;;;;;;14.46;77.79785;102595.3;;;;-75
2023/04/02 11:27:18;;;;;;;;;;;;;;;14.64;75.83887;102606;;;;-75
2023/04/02 11:32:28;;;;;;;;;;;;;;;14.67;78.34766;102611.6;;;;-73
2023/04/02 11:37:14;;;;;;;;;;;;;;;14.72;79.74316;102622.7;;;;-73
2023/04/02 11:42:19;;;;;;;;;;;;;;;15.03;76.71191;102624.8;;;;-72
2023/04/02 11:47:25;;;;;;;;;;;;;;;15.03;76.98047;102634.3;;;;-74
2023/04/02 11:50:22;;;;;;;4.5;1.2;;;;;;;;;;;;;-73
2023/04/02 11:52:18;;;;;;;;;;;;;;;15.12;81.12305;102632.2;;;;-74
2023/04/02 11:57:12;;;;;;;;;;;;;;;15.21;77.05664;102629;;;;-74
2023/04/02 12:02:13;;;;;;;;;;;;;;;15.2;80.71191;102646.1;;;;-74
2023/04/02 12:07:33;;;;;;;;;;;;;;;15.24;78.11328;102645.9;;;;-73
2023/04/02 12:12:18;;;;;;;;;;;;;;;15.29;78.71484;102654.4;;;;-74
2023/04/02 12:17:15;;;;;;;;;;;;;;;15.3;78.03516;102665.9;;;;-72
2023/04/02 12:20:26;;;;;;;3.1;0.9;;;;;;;;;;;;;-73
2023/04/02 12:22:10;;;;;;;;;;;;;;;15.44;76.3125;102664.4;;;;-73
2023/04/02 12:27:23;;;;;;;;;;;;;;;15.43;77.45313;102662.6;;;;-73
2023/04/02 12:32:18;;;;;;;;;;;;;;;15.39;78.85547;102665;;;;-74
2023/04/02 12:37:08;;;;;;;;;;;;;;;15.47;77.24707;102669.3;;;;-73
2023/04/02 12:42:19;;;;;;;;;;;;;;;15.54;76.88965;102669.8;;;;-73
2023/04/02 12:47:08;;;;;;;;;;;;;;;15.63;78.46289;102679.1;;;;-74
2023/04/02 12:50:18;;;;;;;4.1;1;;;;;;;;;;;;;-73
2023/04/02 12:52:11;;;;;;;;;;;;;;;15.79;75.69922;102681.4;;;;-73
2023/04/02 12:57:19;;;;;;;;;;;;;;;15.78;77.06543;102676.5;;;;-73
2023/04/02 13:02:19;;;;;;;;;;;;;;;15.77;77.77148;102679.5;;;;-73
2023/04/02 13:07:08;;;;;;;;;;;;;;;15.85;78.70215;102680.6;;;;-73
2023/04/02 13:12:08;;;;;;;;;;;;;;;15.91;79.15137;102681.2;;;;-74
2023/04/02 13:17:18;;;;;;;;;;;;;;;16.02;78.59766;102686.6;;;;-74
2023/04/02 13:20:28;;;;;;;2;0.8;;;;;;;;;;;;;-74
2023/04/02 13:22:18;;;;;;;;;;;;;;;16.03;78.29785;102687.9;;;;-74
2023/04/02 13:27:08;;;;;;;;;;;;;;;16.08;79.2373;102688.9;;;;-74
2023/04/02 13:32:09;;;;;;;;;;;;;;;16.14;77.02832;102689.8;;;;-74
2023/04/02 13:37:08;;;;;;;;;;;;;;;16.15;77.43457;102694;;;;-73
2023/04/02 13:42:09;;;;;;;;;;;;;;;16.12;77.43945;102698.1;;;;-73
2023/04/02 13:47:08;;;;;;;;;;;;;;;16.19;77.80957;102706.4;;;;-73
2023/04/02 13:50:23;;;;;;;3.2;0.8;;;;;;;;;;;;;-72
2023/04/02 13:52:10;;;;;;;;;;;;;;;16.22;79.15137;102707.3;;;;-74
2023/04/02 13:57:08;;;;;;;;;;;;;;;16.3;77.94238;102709.6;;;;-73
2023/04/02 14:02:15;;;;;;;;;;;;;;;16.39;77.5752;102700.7;;;;-72
2023/04/02 14:07:22;;;;;;;;;;;;;;;16.43;78.02148;102716.8;;;;-73
2023/04/02 14:12:10;;;;;;;;;;;;;;;16.46;78.00391;102718.7;;;;-74
2023/04/02 14:17:14;;;;;;;;;;;;;;;16.62;76.94141;102723.4;;;;-72
2023/04/02 14:20:28;;;;;;;3.5;1;;;;;;;;;;;;;-74
2023/04/02 14:22:16;;;;;;;;;;;;;;;16.57;77.29492;102729.2;;;;-74
2023/04/02 14:27:22;;;;;;;;;;;;;;;16.41;78.98145;102729.1;;;;-72
2023/04/02 14:32:10;;;;;;;;;;;;;;;16.5;77.66406;102729.7;;;;-69
2023/04/02 14:37:13;;;;;;;;;;;;;;;16.48;76.62793;102727.3;;;;-73
2023/04/02 14:42:12;;;;;;;;;;;;;;;16.45;77.62012;102729.1;;;;-73
2023/04/02 14:47:15;;;;;;;;;;;;;;;16.49;77.79492;102734.3;;;;-73
2023/04/02 14:50:27;;;;;;;3.2;0.9;;;;;;;;;;;;;-73
2023/04/02 14:52:13;;;;;;;;;;;;;;;16.47;77.19727;102739.2;;;;-73
2023/04/02 14:57:15;;;;;;;;;;;;;;;16.39;76.36523;102745.2;;;;-73
2023/04/02 15:02:17;;;;;;;;;;;;;;;16.2;78.37207;102749.5;;;;-74
2023/04/02 15:07:10;;;;;;;;;;;;;;;16.31;76.80957;102756.6;;;;-73
2023/04/02 15:12:10;;;;;;;;;;;;;;;16.24;76.36035;102761.5;;;;-73
2023/04/02 15:17:09;;;;;;;;;;;;;;;16.14;75.61426;102764.9;;;;-72
2023/04/02 15:20:26;;;;;;;2.3;0.7;;;;;;;;;;;;;-73
2023/04/02 15:22:24;;;;;;;;;;;;;;;16.06;76.12793;102766.8;;;;-74
2023/04/02 15:27:14;;;;;;;;;;;;;;;15.98;76.04785;102760.7;;;;-73
2023/04/02 15:32:13;;;;;;;;;;;;;;;15.93;77.23828;102755.7;;;;-73
2023/04/02 15:37:15;;;;;;;;;;;;;;;15.93;75.87012;102755.1;;;;-73
2023/04/02 15:42:13;;;;;;;;;;;;;;;15.77;77.11035;102759.5;;;;-75
2023/04/02 15:47:15;;;;;;;;;;;;;;;15.65;76.30371;102762.3;;;;-74
2023/04/02 15:50:38;;;;;;;2.7;0.8;;;;;;;;;;;;;-74
2023/04/02 15:52:12;;;;;;;;;;;;;;;15.53;76.62109;102773.4;;;;-75
2023/04/02 15:57:16;;;;;;;;;;;;;;;15.51;74.77637;102771.9;;;;-74
2023/04/02 16:02:15;;;;;;;;;;;;;;;15.36;74.07031;102781.5;;;;-73
2023/04/02 16:07:18;;;;;;;;;;;;;;;15.22;73.87598;102776;;;;-74
2023/04/02 16:12:15;;;;;;;;;;;;;;;15.18;74.84473;102778.4;;;;-73
2023/04/02 16:17:09;;;;;;;;;;;;;;;14.95;72.72461;102783.1;;;;-73
2023/04/02 16:20:34;;;;;;;3;0.8;;;;;;;;;;;;;-72
2023/04/02 16:22:13;;;;;;;;;;;;;;;14.84;75.40332;102799.7;;;;-73
2023/04/02 16:27:20;;;;;;;;;;;;;;;14.68;75.7334;102793.1;;;;-74
2023/04/02 16:32:12;;;;;;;;;;;;;;;14.59;75.34961;102802.6;;;;-74
2023/04/02 16:37:13;;;;;;;;;;;;;;;14.43;74.97656;102810.1;;;;-73
2023/04/02 16:42:13;;;;;;;;;;;;;;;14.24;74.07129;102817.3;;;;-72
2023/04/02 16:47:16;;;;;;;;;;;;;;;14.08;75.76563;102828.4;;;;-74
2023/04/02 16:50:40;;;;;;;2.1;0.8;;;;;;;;;;;;;-75
2023/04/02 16:52:14;;;;;;;;;;;;;;;13.92;74.0957;102837.8;;;;-73
2023/04/02 16:57:16;;;;;;;;;;;;;;;13.74;73.01563;102836.4;;;;-73
2023/04/02 17:02:20;;;;;;;;;;;;;;;13.6;74.29883;102850.3;;;;-74
2023/04/02 17:07:12;;;;;;;;;;;;;;;13.48;72.54883;102856.1;;;;-74
2023/04/02 17:12:17;;;;;;;;;;;;;;;13.32;75.51172;102865.2;;;;-73
2023/04/02 17:17:08;;;;;;;;;;;;;;;13.14;73.47363;102875.2;;;;-73
2023/04/02 17:20:35;;;;;;;2.5;0.9;;;;;;;;;;;;;-74
2023/04/02 17:22:08;;;;;;;;;;;;;;;12.97;74.38184;102874.9;;;;-74
2023/04/02 17:27:09;;;;;;;;;;;;;;;12.75;74.51074;102887.5;;;;-73
2023/04/02 17:32:09;;;;;;;;;;;;;;;12.5;75.6377;102896.9;;;;-73
2023/04/02 17:37:18;;;;;;;;;;;;;;;12.25;76.27441;102902.2;;;;-74
2023/04/02 17:42:12;;;;;;;;;;;;;;;12;76.44141;102911.2;;;;-74
2023/04/02 17:47:14;;;;;;;;;;;;;;;11.77;76.94434;102918.2;;;;-74
2023/04/02 17:50:45;;;;;;;1.9;0.8;;;;;;;;;;;;;-73
2023/04/02 17:52:11;;;;;;;;;;;;;;;11.58;75.34668;102928.3;;;;-74
2023/04/02 17:57:19;;;;;;;;;;;;;;;11.36;75.62891;102931.5;;;;-74
2023/04/02 18:02:16;;;;;;;;;;;;;;;11.11;75.91016;102932.9;;;;-74
2023/04/02 18:07:21;;;;;;;;;;;;;;;10.89;75.82813;102947.3;;;;-75
2023/04/02 18:12:16;;;;;;;;;;;;;;;10.71;75.09668;102954.1;;;;-73
2023/04/02 18:17:13;;;;;;;;;;;;;;;10.47;76.01758;102959.8;;;;-74
2023/04/02 18:20:42;;;;;;;3.1;1;;;;;;;;;;;;;-75
2023/04/02 18:22:12;;;;;;;;;;;;;;;10.26;75.76172;102970.7;;;;-73
2023/04/02 18:27:15;;;;;;;;;;;;;;;10.01;76.2373;102978.1;;;;-73
2023/04/02 18:32:14;;;;;;;;;;;;;;;9.64;75.89746;102987.1;;;;-73
2023/04/02 18:37:16;;;;;;;;;;;;;;;9.15;74.04492;102993.2;;;;-73
2023/04/02 18:42:11;;;;;;;;;;;;;;;9.27;75.45703;103005.8;;;;-73
2023/04/02 18:47:13;;;;;;;;;;;;;;;9.08;74.46484;103004.5;;;;-74
2023/04/02 18:50:44;;;;;;;5.7;0.8;;;;;;;;;;;;;-74
2023/04/02 18:52:14;;;;;;;;;;;;;;;8.91;75.72559;103021.9;;;;-75
2023/04/02 18:57:14;;;;;;;;;;;;;;;8.72;75.91406;103035.3;;;;-74
2023/04/02 19:02:17;;;;;;;;;;;;;;;8.56;75.59863;103044.5;;;;-74
2023/04/02 19:07:15;;;;;;;;;;;;;;;8.41;76.24609;103052.1;;;;-74
2023/04/02 19:12:15;;;;;;;;;;;;;;;8.2;74.68848;103053.9;;;;-74
2023/04/02 19:17:13;;;;;;;;;;;;;;;8.08;76.68457;103064.4;;;;-74
2023/04/02 19:20:43;;;;;;;3.5;0.9;;;;;;;;;;;;;-75
2023/04/02 19:22:15;;;;;;;;;;;;;;;7.89;76.15332;103064.4;;;;-74
2023/04/02 19:27:10;;;;;;;;;;;;;;;7.78;76.1582;103065.8;;;;-74
2023/04/02 19:32:14;;;;;;;;;;;;;;;7.64;75.98926;103077;;;;-73
2023/04/02 19:37:14;;;;;;;;;;;;;;;7.58;76.35449;103075.5;;;;-72
2023/04/02 19:42:14;;;;;;;;;;;;;;;7.44;76.61426;103082.4;;;;-74
2023/04/02 19:47:08;;;;;;;;;;;;;;;7.33;76.04492;103089.3;;;;-74
2023/04/02 19:50:40;;;;;;;5.3;0.6;;;;;;;;;;;;;-74
2023/04/02 19:52:08;;;;;;;;;;;;;;;7.22;76.10352;103101.6;;;;-75
2023/04/02 19:57:08;;;;;;;;;;;;;;;7.11;75.7998;103108.7;;;;-74
2023/04/02 20:02:09;;;;;;;;;;;;;;;7.01;76.13086;103121.2;;;;-74
2023/04/02 20:07:08;;;;;;;;;;;;;;;6.9;76.34375;103122.6;;;;-73
2023/04/02 20:12:08;;;;;;;;;;;;;;;6.82;76.37305;103128.3;;;;-74
2023/04/02 20:17:08;;;;;;;;;;;;;;;6.75;76.59082;103129.8;;;;-75
2023/04/02 20:20:41;;;;;;;5.5;0.6;;;;;;;;;;;;;-74
2023/04/02 20:22:10;;;;;;;;;;;;;;;6.64;77.46289;103130.7;;;;-75
2023/04/02 20:27:08;;;;;;;;;;;;;;;6.56;76.77832;103134.6;;;;-74
2023/04/02 20:32:11;;;;;;;;;;;;;;;6.5;77.04199;103141.9;;;;-73
2023/04/02 20:37:08;;;;;;;;;;;;;;;6.44;77.4043;103145.7;;;;-75
2023/04/02 20:42:08;;;;;;;;;;;;;;;6.34;77.1123;103151.4;;;;-74
2023/04/02 20:47:09;;;;;;;;;;;;;;;6.24;77.64258;103145.1;;;;-74
2023/04/02 20:50:43;;;;;;;2.1;0.7;;;;;;;;;;;;;-74
2023/04/02 20:52:08;;;;;;;;;;;;;;;6.2;77.4375;103149.8;;;;-74
2023/04/02 20:57:09;;;;;;;;;;;;;;;6.14;77.3623;103158.4;;;;-74
2023/04/02 21:02:08;;;;;;;;;;;;;;;6.07;77.45898;103170.3;;;;-74
2023/04/02 21:07:08;;;;;;;;;;;;;;;6.02;77.52539;103172.8;;;;-74
2023/04/02 21:12:11;;;;;;;;;;;;;;;5.92;77.54102;103189.2;;;;-74
2023/04/02 21:17:11;;;;;;;;;;;;;;;5.85;77.5166;103195.8;;;;-75
2023/04/02 21:20:42;;;;;;;2.2;0.8;;;;;;;;;;;;;-74
2023/04/02 21:22:10;;;;;;;;;;;;;;;5.84;77.66797;103199.2;;;;-74
2023/04/02 21:27:08;;;;;;;;;;;;;;;5.78;77.69141;103198.8;;;;-74
2023/04/02 21:32:08;;;;;;;;;;;;;;;5.73;77.6709;103196.2;;;;-74
2023/04/02 21:37:09;;;;;;;;;;;;;;;5.66;77.7666;103204.6;;;;-75
2023/04/02 21:42:09;;;;;;;;;;;;;;;5.6;77.93262;103201.4;;;;-74
2023/04/02 21:47:08;;;;;;;;;;;;;;;5.57;77.91602;103208;;;;-74
2023/04/02 21:50:43;;;;;;;3.3;0.7;;;;;;;;;;;;;-73
2023/04/02 21:52:08;;;;;;;;;;;;;;;5.5;77.85938;103208.4;;;;-73
2023/04/02 21:57:08;;;;;;;;;;;;;;;5.47;77.95313;103204.4;;;;-74
2023/04/02 22:02:08;;;;;;;;;;;;;;;5.45;77.86035;103205;;;;-73
2023/04/02 22:07:08;;;;;;;;;;;;;;;5.39;77.7959;103204.6;;;;-74
2023/04/02 22:12:08;;;;;;;;;;;;;;;5.3;77.79102;103200.8;;;;-75
2023/04/02 22:17:09;;;;;;;;;;;;;;;5.29;77.64844;103201.3;;;;-73
2023/04/02 22:20:44;;;;;;;1.1;0.6;;;;;;;;;;;;;-74
2023/04/02 22:22:10;;;;;;;;;;;;;;;5.23;77.56934;103203.4;;;;-74
2023/04/02 22:27:08;;;;;;;;;;;;;;;5.23;77.5918;103204.7;;;;-74
2023/04/02 22:32:08;;;;;;;;;;;;;;;5.17;77.76758;103204.3;;;;-73
2023/04/02 22:37:08;;;;;;;;;;;;;;;5.13;77.72656;103208.7;;;;-74
2023/04/02 22:42:08;;;;;;;;;;;;;;;5.14;77.59863;103214;;;;-74
2023/04/02 22:47:08;;;;;;;;;;;;;;;5.12;77.61719;103210.1;;;;-74
2023/04/02 22:50:42;;;;;;;3;0.8;;;;;;;;;;;;;-74
2023/04/02 22:52:08;;;;;;;;;;;;;;;5.08;77.26855;103212.1;;;;-74
2023/04/02 22:57:08;;;;;;;;;;;;;;;5.05;77.28711;103217.2;;;;-74
2023/04/02 23:02:09;;;;;;;;;;;;;;;5.06;77.44238;103222;;;;-73
2023/04/02 23:07:08;;;;;;;;;;;;;;;5.01;77.61816;103218.1;;;;-74
2023/04/02 23:12:08;;;;;;;;;;;;;;;4.95;77.45313;103219;;;;-74
2023/04/02 23:17:07;;;;;;;;;;;;;;;4.93;77.48438;103219.6;;;;-75
2023/04/02 23:20:43;;;;;;;2.3;0.7;;;;;;;;;;;;;-74
2023/04/02 23:22:08;;;;;;;;;;;;;;;4.91;77.93848;103225.7;;;;-74
2023/04/02 23:27:08;;;;;;;;;;;;;;;4.88;77.72461;103231;;;;-75
2023/04/02 23:32:08;;;;;;;;;;;;;;;4.84;77.75195;103232.8;;;;-73
2023/04/02 23:37:08;;;;;;;;;;;;;;;4.78;78.01367;103236.8;;;;-75
2023/04/02 23:42:08;;;;;;;;;;;;;;;4.76;77.83594;103239.7;;;;-74
2023/04/02 23:47:08;;;;;;;;;;;;;;;4.74;77.82129;103239;;;;-75
2023/04/02 23:50:42;;;;;;;2.6;0.8;;;;;;;;;;;;;-74
2023/04/02 23:52:08;;;;;;;;;;;;;;;4.7;77.63867;103235.6;;;;-75
2023/04/02 23:57:07;;;;;;;;;;;;;;;4.65;77.91504;103239.3;;;;-74
